createdAt,value
2023-01-29T00:00:13.706Z,7.92
2023-01-29T00:01:35.230Z,8.72
2023-01-29T00:02:56.685Z,9.17
2023-01-29T00:04:17.594Z,9.12
2023-01-29T00:05:38.750Z,8.73
2023-01-29T00:07:00.316Z,8.70
2023-01-29T00:08:21.594Z,8.82
2023-01-29T00:09:43.035Z,8.56
2023-01-29T00:11:04.758Z,9.32
2023-01-29T00:12:25.988Z,8.73
2023-01-29T00:13:47.365Z,9.06
2023-01-29T00:15:08.745Z,8.91
2023-01-29T00:16:30.713Z,10.22
2023-01-29T00:17:52.276Z,10.17
2023-01-29T00:19:13.673Z,9.53
2023-01-29T00:20:34.848Z,9.62
2023-01-29T00:21:56.001Z,9.80
2023-01-29T00:23:17.191Z,9.49
2023-01-29T00:24:38.641Z,9.84
2023-01-29T00:25:59.907Z,9.40
2023-01-29T00:27:21.201Z,10.02
2023-01-29T00:28:42.822Z,9.68
2023-01-29T00:30:05.186Z,9.81
2023-01-29T00:31:26.607Z,7.62
2023-01-29T00:32:48.242Z,9.33
2023-01-29T00:34:09.310Z,9.19
2023-01-29T00:35:30.486Z,9.57
2023-01-29T00:36:52.239Z,9.58
2023-01-29T00:38:14.068Z,9.83
2023-01-29T00:39:47.124Z,9.62
2023-01-29T00:42:26.395Z,9.37
2023-01-29T00:43:47.953Z,11.90
2023-01-29T00:45:10.485Z,11.68
2023-01-29T00:46:32.090Z,11.26
2023-01-29T00:47:53.394Z,10.05
2023-01-29T00:49:14.879Z,10.33
2023-01-29T00:50:36.523Z,9.84
2023-01-29T00:51:57.584Z,9.92
2023-01-29T00:53:18.842Z,9.50
2023-01-29T00:54:40.303Z,9.46
2023-01-29T00:56:02.055Z,9.57
2023-01-29T00:57:24.556Z,9.97
2023-01-29T00:58:45.608Z,7.89
2023-01-29T01:00:10.090Z,9.41
2023-01-29T01:01:31.373Z,8.76
2023-01-29T01:02:52.420Z,9.51
2023-01-29T01:04:14.023Z,9.36
2023-01-29T01:05:35.027Z,8.94
2023-01-29T01:06:56.718Z,9.13
2023-01-29T01:08:17.871Z,9.40
2023-01-29T01:09:38.992Z,9.39
2023-01-29T01:11:02.676Z,9.92
2023-01-29T01:13:45.143Z,9.23
2023-01-29T01:15:07.161Z,8.74
2023-01-29T01:16:28.407Z,8.72
2023-01-29T01:17:55.004Z,8.74
2023-01-29T01:19:16.323Z,8.52
2023-01-29T01:20:37.895Z,9.46
2023-01-29T01:21:59.224Z,8.42
2023-01-29T01:23:21.936Z,9.37
2023-01-29T01:24:43.281Z,8.84
2023-01-29T01:26:09.744Z,9.09
2023-01-29T01:27:31.185Z,9.14
2023-01-29T01:28:52.310Z,9.00
2023-01-29T01:30:15.111Z,8.61
2023-01-29T01:31:36.388Z,8.47
2023-01-29T01:32:57.719Z,8.88
2023-01-29T01:34:19.424Z,9.39
2023-01-29T01:35:40.861Z,9.00
2023-01-29T01:37:02.487Z,9.67
2023-01-29T01:38:24.273Z,10.13
2023-01-29T01:39:45.785Z,10.20
2023-01-29T01:41:07.016Z,10.32
2023-01-29T01:42:28.658Z,10.40
2023-01-29T01:43:57.495Z,10.40
2023-01-29T01:45:28.362Z,9.41
2023-01-29T01:46:50.075Z,8.32
2023-01-29T01:48:16.627Z,8.43
2023-01-29T01:49:37.657Z,8.39
2023-01-29T01:51:01.673Z,8.50
2023-01-29T01:53:46.430Z,8.29
2023-01-29T01:55:08.594Z,8.89
2023-01-29T01:56:32.442Z,8.83
2023-01-29T01:57:56.903Z,8.98
2023-01-29T01:59:18.007Z,9.01
2023-01-29T02:00:39.474Z,9.49
2023-01-29T02:02:00.830Z,8.72
2023-01-29T02:03:22.298Z,8.86
2023-01-29T02:04:45.835Z,9.67
2023-01-29T02:06:08.096Z,8.79
2023-01-29T02:07:29.673Z,9.29
2023-01-29T02:08:54.423Z,8.48
2023-01-29T02:10:16.455Z,7.84
2023-01-29T02:11:38.223Z,8.12
2023-01-29T02:12:59.580Z,8.78
2023-01-29T02:14:21.652Z,7.58
2023-01-29T02:15:42.924Z,7.69
2023-01-29T02:17:05.641Z,8.24
2023-01-29T02:18:26.767Z,8.29
2023-01-29T02:20:09.381Z,8.84
2023-01-29T02:23:03.642Z,7.17
2023-01-29T02:26:16.155Z,9.35
2023-01-29T02:29:11.306Z,8.22
2023-01-29T02:30:39.359Z,8.69
2023-01-29T02:32:21.971Z,9.01
2023-01-29T02:33:59.052Z,7.44
2023-01-29T02:36:46.273Z,6.54
2023-01-29T02:38:26.441Z,8.11
2023-01-29T02:41:30.652Z,9.07
2023-01-29T02:44:31.916Z,9.35
2023-01-29T02:46:13.779Z,8.59
2023-01-29T02:47:44.956Z,8.81
2023-01-29T02:49:28.617Z,8.86
2023-01-29T02:52:11.394Z,9.14
2023-01-29T02:53:41.927Z,9.37
2023-01-29T02:55:09.709Z,8.48
2023-01-29T02:56:40.865Z,8.27
2023-01-29T02:58:05.984Z,7.96
2023-01-29T03:00:45.160Z,7.71
2023-01-29T03:02:12.245Z,7.86
2023-01-29T03:03:36.674Z,7.98
2023-01-29T03:05:00.170Z,7.71
2023-01-29T03:07:35.661Z,6.89
2023-01-29T03:08:58.980Z,7.83
2023-01-29T03:10:24.082Z,8.30
2023-01-29T03:11:48.530Z,8.45
2023-01-29T03:13:16.336Z,8.85
2023-01-29T03:14:37.617Z,9.25
2023-01-29T03:16:05.653Z,8.89
2023-01-29T03:17:29.105Z,9.16
2023-01-29T03:20:12.440Z,9.23
2023-01-29T03:21:35.840Z,9.48
2023-01-29T03:24:17.918Z,9.27
2023-01-29T03:25:39.337Z,8.86
2023-01-29T03:27:02.283Z,9.00
2023-01-29T03:28:23.270Z,8.02
2023-01-29T03:29:44.275Z,9.09
2023-01-29T03:31:07.228Z,9.47
2023-01-29T03:32:28.624Z,9.09
2023-01-29T03:33:53.415Z,8.72
2023-01-29T03:35:15.506Z,8.77
2023-01-29T03:36:45.513Z,8.49
2023-01-29T03:38:08.268Z,8.02
2023-01-29T03:39:29.303Z,9.12
2023-01-29T03:41:11.698Z,8.41
2023-01-29T03:42:45.713Z,8.58
2023-01-29T03:44:15.079Z,8.59
2023-01-29T03:45:59.360Z,8.03
2023-01-29T03:47:46.892Z,9.93
2023-01-29T03:50:56.680Z,8.58
2023-01-29T03:54:05.654Z,7.68
2023-01-29T03:56:01.314Z,7.57
2023-01-29T03:57:26.448Z,7.62
2023-01-29T03:59:00.140Z,7.37
2023-01-29T04:00:24.889Z,7.28
2023-01-29T04:01:54.285Z,7.38
2023-01-29T04:03:18.784Z,8.18
2023-01-29T04:04:41.416Z,7.73
2023-01-29T04:06:13.417Z,7.96
2023-01-29T04:07:34.382Z,8.98
2023-01-29T04:09:15.591Z,10.57
2023-01-29T04:10:37.860Z,10.48
2023-01-29T04:12:04.910Z,9.08
2023-01-29T04:13:25.981Z,8.38
2023-01-29T04:14:47.300Z,8.38
2023-01-29T04:16:11.947Z,7.62
2023-01-29T04:17:39.967Z,7.67
2023-01-29T04:19:00.972Z,6.66
2023-01-29T04:20:22.721Z,12.82
2023-01-29T04:21:43.819Z,7.81
2023-01-29T04:23:06.375Z,8.48
2023-01-29T04:24:28.110Z,7.52
2023-01-29T04:27:24.592Z,8.60
2023-01-29T04:28:55.649Z,7.36
2023-01-29T04:30:37.203Z,9.66
2023-01-29T04:32:07.779Z,8.32
2023-01-29T04:33:51.264Z,7.86
2023-01-29T04:35:33.880Z,9.89
2023-01-29T04:38:52.419Z,8.66
2023-01-29T04:40:26.715Z,9.09
2023-01-29T04:41:54.794Z,8.21
2023-01-29T04:43:25.829Z,7.36
2023-01-29T04:46:07.537Z,6.96
2023-01-29T04:47:38.490Z,7.55
2023-01-29T04:49:20.955Z,8.09
2023-01-29T04:52:20.150Z,5.39
2023-01-29T04:55:01.706Z,7.80
2023-01-29T04:56:27.208Z,7.66
2023-01-29T04:58:01.371Z,8.51
2023-01-29T05:00:38.079Z,8.77
2023-01-29T05:02:00.396Z,8.80
2023-01-29T05:03:23.029Z,8.21
2023-01-29T05:04:44.179Z,6.37
2023-01-29T05:06:06.547Z,8.41
2023-01-29T05:07:27.632Z,9.83
2023-01-29T05:08:48.892Z,8.37
2023-01-29T05:10:11.500Z,7.66
2023-01-29T05:11:32.804Z,7.56
2023-01-29T05:12:57.916Z,6.91
2023-01-29T05:14:20.355Z,7.99
2023-01-29T05:16:01.737Z,7.75
2023-01-29T05:17:23.098Z,9.98
2023-01-29T05:18:44.663Z,7.49
2023-01-29T05:20:07.392Z,8.51
2023-01-29T05:21:28.418Z,7.81
2023-01-29T05:22:49.478Z,7.73
2023-01-29T05:25:30.348Z,5.34
2023-01-29T05:26:53.114Z,7.30
2023-01-29T05:28:14.469Z,7.87
2023-01-29T05:29:35.944Z,7.86
2023-01-29T05:30:57.791Z,8.55
2023-01-29T05:32:19.155Z,7.91
2023-01-29T05:33:40.453Z,8.64
2023-01-29T05:35:01.699Z,7.22
2023-01-29T05:36:23.622Z,6.34
2023-01-29T05:37:45.139Z,5.88
2023-01-29T05:39:06.897Z,5.66
2023-01-29T05:40:28.383Z,6.09
2023-01-29T05:41:49.572Z,5.46
2023-01-29T05:44:30.862Z,5.07
2023-01-29T05:45:59.472Z,4.73
2023-01-29T05:47:20.671Z,4.89
2023-01-29T05:48:41.606Z,4.53
2023-01-29T05:50:03.361Z,4.97
2023-01-29T05:51:24.859Z,5.33
2023-01-29T05:52:46.089Z,5.45
2023-01-29T05:54:07.386Z,5.62
2023-01-29T05:55:30.037Z,4.69
2023-01-29T05:56:51.988Z,4.83
2023-01-29T05:58:13.287Z,6.02
2023-01-29T05:59:34.512Z,4.43
2023-01-29T06:00:55.719Z,4.57
2023-01-29T06:02:16.992Z,4.44
2023-01-29T06:03:38.429Z,4.81
2023-01-29T06:04:59.382Z,4.82
2023-01-29T06:06:20.835Z,4.84
2023-01-29T06:07:43.745Z,6.12
2023-01-29T06:09:05.174Z,8.01
2023-01-29T06:10:26.516Z,5.21
2023-01-29T06:11:47.551Z,5.28
2023-01-29T06:13:08.801Z,5.27
2023-01-29T06:14:29.880Z,5.79
2023-01-29T06:15:50.956Z,4.96
2023-01-29T06:17:12.612Z,5.06
2023-01-29T06:18:35.333Z,5.11
2023-01-29T06:19:56.676Z,5.29
2023-01-29T06:21:19.947Z,5.65
2023-01-29T06:24:01.739Z,4.78
2023-01-29T06:25:23.172Z,4.44
2023-01-29T06:26:44.244Z,4.48
2023-01-29T06:28:05.545Z,4.38
2023-01-29T06:29:26.918Z,4.03
2023-01-29T06:30:48.270Z,4.17
2023-01-29T06:32:09.817Z,4.42
2023-01-29T06:33:31.096Z,5.09
2023-01-29T06:34:52.726Z,5.23
2023-01-29T06:36:14.666Z,4.89
2023-01-29T06:37:35.876Z,5.41
2023-01-29T06:38:57.384Z,4.68
2023-01-29T06:40:20.361Z,4.81
2023-01-29T06:41:42.904Z,4.31
2023-01-29T06:43:04.241Z,3.79
2023-01-29T06:44:25.697Z,3.68
2023-01-29T06:45:51.899Z,4.12
2023-01-29T06:47:13.174Z,4.06
2023-01-29T06:48:34.645Z,4.35
2023-01-29T06:49:56.173Z,5.17
2023-01-29T06:51:17.596Z,4.76
2023-01-29T06:52:38.849Z,4.70
2023-01-29T06:54:00.104Z,5.37
2023-01-29T06:55:21.525Z,4.66
2023-01-29T06:56:43.164Z,4.18
2023-01-29T06:59:41.949Z,5.06
2023-01-29T07:01:06.109Z,4.93
2023-01-29T07:02:27.654Z,5.08
2023-01-29T07:03:49.595Z,4.04
2023-01-29T07:05:11.181Z,4.05
2023-01-29T07:06:33.236Z,3.67
2023-01-29T07:07:54.273Z,4.11
2023-01-29T07:09:15.753Z,4.18
2023-01-29T07:10:37.011Z,3.78
2023-01-29T07:11:59.388Z,3.72
2023-01-29T07:13:20.456Z,3.62
2023-01-29T07:14:41.486Z,3.82
2023-01-29T07:16:03.721Z,4.23
2023-01-29T07:17:25.264Z,3.84
2023-01-29T07:18:47.100Z,4.30
2023-01-29T07:20:09.426Z,4.41
2023-01-29T07:21:30.487Z,4.17
2023-01-29T07:22:51.556Z,3.78
2023-01-29T07:24:12.686Z,4.10
2023-01-29T07:25:34.125Z,3.98
2023-01-29T07:26:55.600Z,3.72
2023-01-29T07:28:17.741Z,3.68
2023-01-29T07:29:38.812Z,3.80
2023-01-29T07:30:59.945Z,3.82
2023-01-29T07:32:21.046Z,3.21
2023-01-29T07:33:43.165Z,3.26
2023-01-29T07:35:04.765Z,3.64
2023-01-29T07:36:26.650Z,3.25
2023-01-29T07:37:50.785Z,3.08
2023-01-29T07:39:12.182Z,2.81
2023-01-29T07:40:33.573Z,2.52
2023-01-29T07:41:54.686Z,2.91
2023-01-29T07:43:16.251Z,2.92
2023-01-29T07:44:37.531Z,2.74
2023-01-29T07:46:02.413Z,3.04
2023-01-29T07:47:23.536Z,2.68
2023-01-29T07:48:44.535Z,3.08
2023-01-29T07:50:06.354Z,2.56
2023-01-29T07:51:27.859Z,2.73
2023-01-29T07:52:49.514Z,2.64
2023-01-29T07:54:10.817Z,2.83
2023-01-29T07:55:32.305Z,3.03
2023-01-29T07:56:53.801Z,2.73
2023-01-29T07:58:15.167Z,2.69
2023-01-29T07:59:36.831Z,2.43
2023-01-29T08:02:11.816Z,2.32
2023-01-29T08:03:33.171Z,2.36
2023-01-29T08:04:54.445Z,2.21
2023-01-29T08:06:16.022Z,2.33
2023-01-29T08:07:37.466Z,2.76
2023-01-29T08:08:58.871Z,2.59
2023-01-29T08:10:20.808Z,2.83
2023-01-29T08:11:42.003Z,2.83
2023-01-29T08:13:03.429Z,3.11
2023-01-29T08:14:24.629Z,3.07
2023-01-29T08:15:46.495Z,3.13
2023-01-29T08:17:07.631Z,3.52
2023-01-29T08:18:29.238Z,3.23
2023-01-29T08:19:50.279Z,3.37
2023-01-29T08:21:13.138Z,3.65
2023-01-29T08:22:34.870Z,3.74
2023-01-29T08:23:56.293Z,4.52
2023-01-29T08:25:17.814Z,4.08
2023-01-29T08:26:39.708Z,4.57
2023-01-29T08:28:01.025Z,3.98
2023-01-29T08:29:22.291Z,3.91
2023-01-29T08:30:43.947Z,4.12
2023-01-29T08:32:05.669Z,4.65
2023-01-29T08:33:37.188Z,3.08
2023-01-29T08:36:13.057Z,3.89
2023-01-29T08:37:34.200Z,3.97
2023-01-29T08:38:55.451Z,3.49
2023-01-29T08:40:18.088Z,3.60
2023-01-29T08:41:39.436Z,3.62
2023-01-29T08:43:02.977Z,3.56
2023-01-29T08:44:25.313Z,3.62
2023-01-29T08:45:46.334Z,3.17
2023-01-29T08:47:08.044Z,3.01
2023-01-29T08:48:30.319Z,2.86
2023-01-29T08:49:53.740Z,2.43
2023-01-29T08:51:15.151Z,3.11
2023-01-29T08:52:36.521Z,2.77
2023-01-29T08:53:57.541Z,2.78
2023-01-29T08:55:19.096Z,2.75
2023-01-29T08:56:40.670Z,2.73
2023-01-29T08:58:03.597Z,2.73
2023-01-29T08:59:24.905Z,2.64
2023-01-29T09:00:46.599Z,2.82
2023-01-29T09:02:09.980Z,3.04
2023-01-29T09:03:31.210Z,3.96
2023-01-29T09:04:52.575Z,4.29
2023-01-29T09:06:14.326Z,3.98
2023-01-29T09:07:35.338Z,5.03
2023-01-29T09:08:56.330Z,4.35
2023-01-29T09:10:19.209Z,4.54
2023-01-29T09:11:40.300Z,4.12
2023-01-29T09:13:01.751Z,4.60
2023-01-29T09:14:23.489Z,4.03
2023-01-29T09:16:10.316Z,3.69
2023-01-29T09:17:34.271Z,3.86
2023-01-29T09:18:56.157Z,3.06
2023-01-29T09:20:18.072Z,3.01
2023-01-29T09:21:39.463Z,2.62
2023-01-29T09:23:07.772Z,2.55
2023-01-29T09:24:31.568Z,2.78
2023-01-29T09:25:52.668Z,2.58
2023-01-29T09:27:14.585Z,2.47
2023-01-29T09:28:35.942Z,2.63
2023-01-29T09:29:57.239Z,2.63
2023-01-29T09:31:18.510Z,2.89
2023-01-29T09:32:55.508Z,2.69
2023-01-29T09:34:03.331Z,2.75
2023-01-29T09:35:24.451Z,2.75
2023-01-29T09:36:47.677Z,2.33
2023-01-29T09:38:09.643Z,2.77
2023-01-29T09:39:31.039Z,2.78
2023-01-29T09:41:02.049Z,3.30
2023-01-29T09:42:41.424Z,2.53
2023-01-29T09:44:05.589Z,2.83
2023-01-29T09:45:27.633Z,3.11
2023-01-29T09:46:49.076Z,3.11
2023-01-29T09:48:10.800Z,3.17
2023-01-29T09:49:34.768Z,3.44
2023-01-29T09:50:57.440Z,3.91
2023-01-29T09:52:29.847Z,4.44
2023-01-29T09:53:54.252Z,4.11
2023-01-29T09:55:22.028Z,3.96
2023-01-29T09:56:43.131Z,4.91
2023-01-29T09:58:11.840Z,5.45
2023-01-29T09:59:32.905Z,5.31
2023-01-29T10:01:12.902Z,5.28
2023-01-29T10:04:24.766Z,6.01
2023-01-29T10:07:43.404Z,6.63
2023-01-29T10:09:32.699Z,6.64
2023-01-29T10:11:00.945Z,8.30
2023-01-29T10:12:53.164Z,9.95
2023-01-29T10:14:20.815Z,7.29
2023-01-29T10:15:48.773Z,7.12
2023-01-29T10:19:04.781Z,6.49
2023-01-29T10:20:46.089Z,7.82
2023-01-29T10:23:34.180Z,7.61
2023-01-29T10:24:59.973Z,6.82
2023-01-29T10:26:23.786Z,7.86
2023-01-29T10:29:01.604Z,10.03
2023-01-29T10:30:40.250Z,8.67
2023-01-29T10:32:01.566Z,8.99
2023-01-29T10:34:48.274Z,8.56
2023-01-29T10:36:16.639Z,8.07
2023-01-29T10:37:41.839Z,7.26
2023-01-29T10:39:03.165Z,7.26
2023-01-29T10:40:40.092Z,7.78
2023-01-29T10:42:17.052Z,7.85
2023-01-29T10:43:56.896Z,7.88
2023-01-29T10:45:21.644Z,7.35
2023-01-29T10:46:46.592Z,8.29
2023-01-29T10:48:23.638Z,8.22
2023-01-29T10:50:12.909Z,7.64
2023-01-29T10:51:49.995Z,7.29
2023-01-29T10:53:32.930Z,7.70
2023-01-29T10:55:09.870Z,7.04
2023-01-29T10:56:59.536Z,6.39
2023-01-29T10:58:41.209Z,6.73
2023-01-29T11:00:08.987Z,7.79
2023-01-29T11:01:30.883Z,7.13
2023-01-29T11:02:52.175Z,7.11
2023-01-29T11:04:13.730Z,6.74
2023-01-29T11:07:17.711Z,8.64
2023-01-29T11:10:17.496Z,6.61
2023-01-29T11:11:42.116Z,7.59
2023-01-29T11:13:05.126Z,7.92
2023-01-29T11:14:28.154Z,8.30
2023-01-29T11:17:17.391Z,9.07
2023-01-29T11:18:59.557Z,9.36
2023-01-29T11:21:54.532Z,8.64
2023-01-29T11:23:27.694Z,7.27
2023-01-29T11:25:13.156Z,7.29
2023-01-29T11:26:37.305Z,7.78
2023-01-29T11:27:59.539Z,7.42
2023-01-29T11:29:29.389Z,7.23
2023-01-29T11:30:50.605Z,7.32
2023-01-29T11:33:25.493Z,8.13
2023-01-29T11:35:09.879Z,7.62
2023-01-29T11:36:37.084Z,7.56
2023-01-29T11:38:02.221Z,8.15
2023-01-29T11:39:23.896Z,7.37
2023-01-29T11:40:45.013Z,7.58
2023-01-29T11:42:09.347Z,7.36
2023-01-29T11:43:30.813Z,8.81
2023-01-29T11:44:51.877Z,8.62
2023-01-29T11:46:14.237Z,8.21
2023-01-29T11:47:35.453Z,9.38
2023-01-29T11:48:59.369Z,9.23
2023-01-29T11:50:22.655Z,8.72
2023-01-29T11:51:44.156Z,8.91
2023-01-29T11:53:05.552Z,9.28
2023-01-29T11:54:28.946Z,10.22
2023-01-29T11:55:51.163Z,9.36
2023-01-29T11:57:30.062Z,9.14
2023-01-29T11:58:51.189Z,10.56
2023-01-29T12:00:26.892Z,9.56
2023-01-29T12:01:47.941Z,10.39
2023-01-29T12:03:17.821Z,10.53
2023-01-29T12:04:39.092Z,9.39
2023-01-29T12:06:07.697Z,10.11
2023-01-29T12:07:28.997Z,8.99
2023-01-29T12:08:57.576Z,8.44
2023-01-29T12:11:53.515Z,8.66
2023-01-29T12:13:26.247Z,9.93
2023-01-29T12:14:47.575Z,9.08
2023-01-29T12:16:39.067Z,9.70
2023-01-29T12:18:23.860Z,9.81
2023-01-29T12:21:01.724Z,10.21
2023-01-29T12:22:48.979Z,9.43
2023-01-29T12:24:30.632Z,9.27
2023-01-29T12:26:00.792Z,9.93
2023-01-29T12:27:28.551Z,9.29
2023-01-29T12:28:59.498Z,9.50
2023-01-29T12:31:59.464Z,7.98
2023-01-29T12:33:30.408Z,9.71
2023-01-29T12:34:56.865Z,9.82
2023-01-29T12:37:50.353Z,10.03
2023-01-29T12:39:13.246Z,9.30
2023-01-29T12:40:43.505Z,9.62
2023-01-29T12:42:09.805Z,10.11
2023-01-29T12:43:42.574Z,10.01
2023-01-29T12:45:06.928Z,10.28
2023-01-29T12:46:30.973Z,10.27
2023-01-29T12:47:54.870Z,10.16
2023-01-29T12:49:18.194Z,10.33
2023-01-29T12:50:39.686Z,8.92
2023-01-29T12:52:16.342Z,7.84
2023-01-29T12:53:46.605Z,8.38
2023-01-29T12:57:46.328Z,8.08
2023-01-29T13:00:31.899Z,9.29
2023-01-29T13:03:20.670Z,9.14
2023-01-29T13:04:44.863Z,9.31
2023-01-29T13:06:08.707Z,9.45
2023-01-29T13:07:37.671Z,10.19
2023-01-29T13:09:02.716Z,10.74
2023-01-29T13:10:27.663Z,9.40
2023-01-29T13:12:06.779Z,9.11
2023-01-29T13:13:34.270Z,9.13
2023-01-29T13:14:59.834Z,8.83
2023-01-29T13:16:23.473Z,9.51
2023-01-29T13:19:12.376Z,9.81
2023-01-29T13:20:33.863Z,9.94
2023-01-29T13:21:56.602Z,9.55
2023-01-29T13:24:47.884Z,9.53
2023-01-29T13:26:05.848Z,9.34
2023-01-29T13:27:31.165Z,10.50
2023-01-29T13:28:52.468Z,9.11
2023-01-29T13:30:30.628Z,9.86
2023-01-29T13:31:52.101Z,9.92
2023-01-29T13:33:17.684Z,9.57
2023-01-29T13:34:45.015Z,9.02
2023-01-29T13:36:08.578Z,9.67
2023-01-29T13:37:33.719Z,9.83
2023-01-29T13:38:57.714Z,11.01
2023-01-29T13:41:39.098Z,9.37
2023-01-29T13:43:00.724Z,10.46
2023-01-29T13:44:35.392Z,9.40
2023-01-29T13:45:56.877Z,9.93
2023-01-29T13:47:34.995Z,9.40
2023-01-29T13:48:56.442Z,9.48
2023-01-29T13:50:38.971Z,9.82
2023-01-29T13:52:14.507Z,9.54
2023-01-29T13:53:37.455Z,9.44
2023-01-29T13:55:10.999Z,11.16
2023-01-29T13:57:48.634Z,9.21
2023-01-29T14:00:46.778Z,10.28
2023-01-29T14:02:25.283Z,9.52
2023-01-29T14:04:04.306Z,9.94
2023-01-29T14:05:33.421Z,10.29
2023-01-29T14:06:55.971Z,11.36
2023-01-29T14:08:38.136Z,10.02
2023-01-29T14:10:02.296Z,9.69
2023-01-29T14:11:34.739Z,9.29
2023-01-29T14:13:05.373Z,9.92
2023-01-29T14:14:49.982Z,9.64
2023-01-29T14:16:15.773Z,9.74
2023-01-29T14:17:38.255Z,9.79
2023-01-29T14:19:00.182Z,10.05
2023-01-29T14:20:32.380Z,10.11
2023-01-29T14:21:48.826Z,9.30
2023-01-29T14:23:22.807Z,10.46
2023-01-29T14:24:44.491Z,10.22
2023-01-29T14:26:20.931Z,9.66
2023-01-29T14:27:47.231Z,9.72
2023-01-29T14:29:29.077Z,9.67
2023-01-29T14:30:49.078Z,10.29
2023-01-29T14:32:20.682Z,9.90
2023-01-29T14:33:44.430Z,10.08
2023-01-29T14:35:25.605Z,10.74
2023-01-29T14:36:47.221Z,9.77
2023-01-29T14:38:08.574Z,10.14
2023-01-29T14:39:34.928Z,10.90
2023-01-29T14:42:59.597Z,10.94
2023-01-29T14:44:47.543Z,10.68
2023-01-29T14:47:50.467Z,8.68
2023-01-29T14:49:11.784Z,10.23
2023-01-29T14:50:37.151Z,10.02
2023-01-29T14:51:58.426Z,10.05
2023-01-29T14:53:43.136Z,10.70
2023-01-29T14:55:10.537Z,10.37
2023-01-29T14:56:34.462Z,10.57
2023-01-29T14:57:55.770Z,10.56
2023-01-29T14:59:23.289Z,10.49
2023-01-29T15:00:45.428Z,11.03
2023-01-29T15:04:59.569Z,10.81
2023-01-29T15:06:39.960Z,10.12
2023-01-29T15:08:06.262Z,10.28
2023-01-29T15:09:42.860Z,9.61
2023-01-29T15:11:10.627Z,9.41
2023-01-29T15:12:35.790Z,9.23
2023-01-29T15:14:06.568Z,9.34
2023-01-29T15:15:46.977Z,9.35
2023-01-29T15:17:17.396Z,9.39
2023-01-29T15:18:42.043Z,9.67
2023-01-29T15:20:06.142Z,9.91
2023-01-29T15:21:27.298Z,9.72
2023-01-29T15:22:48.596Z,9.27
2023-01-29T15:24:11.970Z,9.69
2023-01-29T15:26:49.022Z,9.12
2023-01-29T15:28:10.503Z,9.43
2023-01-29T15:29:32.243Z,9.78
2023-01-29T15:30:54.782Z,9.35
2023-01-29T15:33:40.463Z,10.01
2023-01-29T15:46:55.935Z,9.24
2023-01-29T15:49:33.180Z,10.67
2023-01-29T15:50:56.247Z,10.09
2023-01-29T15:53:44.216Z,10.56
2023-01-29T15:55:06.254Z,9.79
2023-01-29T15:56:32.465Z,10.60
2023-01-29T15:57:53.661Z,11.07
2023-01-29T15:59:19.280Z,10.58
2023-01-29T16:00:41.122Z,11.64
2023-01-29T16:02:37.454Z,10.17
2023-01-29T16:03:59.573Z,10.63
2023-01-29T16:05:23.374Z,10.79
2023-01-29T16:06:45.785Z,10.69
2023-01-29T16:08:10.541Z,10.24
2023-01-29T16:09:31.949Z,10.46
2023-01-29T16:10:55.629Z,10.01
2023-01-29T16:12:16.878Z,11.20
2023-01-29T16:14:50.588Z,11.84
2023-01-29T16:16:21.965Z,11.08
2023-01-29T16:17:43.405Z,11.01
2023-01-29T16:20:43.878Z,10.94
2023-01-29T16:24:40.450Z,10.62
2023-01-29T16:26:06.643Z,11.14
2023-01-29T16:27:28.125Z,9.93
2023-01-29T16:28:49.175Z,10.34
2023-01-29T16:31:28.590Z,9.12
2023-01-29T16:32:49.855Z,8.24
2023-01-29T16:34:17.268Z,8.74
2023-01-29T16:35:38.301Z,9.65
2023-01-29T16:37:00.815Z,8.64
2023-01-29T16:39:39.109Z,9.83
2023-01-29T16:41:22.190Z,9.65
2023-01-29T16:42:45.857Z,9.12
2023-01-29T16:44:17.204Z,10.13
2023-01-29T16:45:38.544Z,9.63
2023-01-29T16:47:11.824Z,9.29
2023-01-29T16:48:33.875Z,10.29
2023-01-29T16:49:56.498Z,9.74
2023-01-29T16:54:13.475Z,9.88
2023-01-29T16:55:38.772Z,10.04
2023-01-29T16:56:59.944Z,10.20
2023-01-29T16:58:23.913Z,10.05
2023-01-29T16:59:45.283Z,10.28
2023-01-29T17:01:08.484Z,10.22
2023-01-29T17:02:30.937Z,10.43
2023-01-29T17:05:24.394Z,10.67
2023-01-29T17:06:48.281Z,10.46
2023-01-29T17:08:19.103Z,10.19
2023-01-29T17:09:41.739Z,10.74
2023-01-29T17:11:03.621Z,11.62
2023-01-29T17:12:25.196Z,10.63
2023-01-29T17:13:46.600Z,11.83
2023-01-29T17:15:28.223Z,10.73
2023-01-29T17:16:52.135Z,10.54
2023-01-29T17:18:20.713Z,10.57
2023-01-29T17:19:41.926Z,11.19
2023-01-29T17:21:03.148Z,9.93
2023-01-29T17:22:24.552Z,10.39
2023-01-29T17:23:46.162Z,10.49
2023-01-29T17:25:09.201Z,10.65
2023-01-29T17:26:30.455Z,10.61
2023-01-29T17:27:51.831Z,11.31
2023-01-29T17:29:14.048Z,11.43
2023-01-29T17:30:35.356Z,11.72
2023-01-29T17:31:56.647Z,11.22
2023-01-29T17:33:18.641Z,10.58
2023-01-29T17:34:40.100Z,10.86
2023-01-29T17:36:01.437Z,11.21
2023-01-29T17:37:22.897Z,11.84
2023-01-29T17:38:44.683Z,11.09
2023-01-29T17:40:31.008Z,8.32
2023-01-29T17:43:04.608Z,12.14
2023-01-29T17:44:25.827Z,10.18
2023-01-29T17:45:47.230Z,10.51
2023-01-29T17:47:12.563Z,10.27
2023-01-29T17:48:33.875Z,10.26
2023-01-29T17:49:55.512Z,10.19
2023-01-29T17:51:17.192Z,10.97
2023-01-29T17:52:38.334Z,10.35
2023-01-29T17:53:59.519Z,11.09
2023-01-29T17:55:21.795Z,10.66
2023-01-29T17:56:43.231Z,10.99
2023-01-29T17:58:04.526Z,10.23
2023-01-29T17:59:30.817Z,10.73
2023-01-29T18:00:53.340Z,10.03
2023-01-29T18:02:28.918Z,10.32
2023-01-29T18:04:58.882Z,9.97
2023-01-29T18:06:28.366Z,11.19
2023-01-29T18:07:49.448Z,10.53
2023-01-29T18:09:18.336Z,9.79
2023-01-29T18:10:39.720Z,10.11
2023-01-29T18:12:00.986Z,10.98
2023-01-29T18:13:22.491Z,10.68
2023-01-29T18:14:44.026Z,10.58
2023-01-29T18:16:06.241Z,10.22
2023-01-29T18:17:27.897Z,10.58
2023-01-29T18:18:49.743Z,10.33
2023-01-29T18:20:22.226Z,10.38
2023-01-29T18:21:43.950Z,10.16
2023-01-29T18:23:06.065Z,11.56
2023-01-29T18:24:27.522Z,10.77
2023-01-29T18:25:49.005Z,10.98
2023-01-29T18:27:10.480Z,10.93
2023-01-29T18:28:31.629Z,11.09
2023-01-29T18:29:53.151Z,10.10
2023-01-29T18:31:14.593Z,10.37
2023-01-29T18:32:36.558Z,9.03
2023-01-29T18:33:57.684Z,11.00
2023-01-29T18:35:19.737Z,10.88
2023-01-29T18:36:41.143Z,10.31
2023-01-29T18:38:02.733Z,10.87
2023-01-29T18:39:24.028Z,10.42
2023-01-29T18:40:45.651Z,11.16
2023-01-29T18:42:06.866Z,11.53
2023-01-29T18:43:28.323Z,11.64
2023-01-29T18:44:49.799Z,10.64
2023-01-29T18:46:11.574Z,11.19
2023-01-29T18:47:33.213Z,10.84
2023-01-29T18:48:54.698Z,10.48
2023-01-29T18:50:16.426Z,11.08
2023-01-29T18:51:37.719Z,10.80
2023-01-29T18:52:59.313Z,10.08
2023-01-29T18:54:20.623Z,9.66
2023-01-29T18:55:42.490Z,10.50
2023-01-29T18:57:13.031Z,11.21
2023-01-29T18:58:34.748Z,10.90
2023-01-29T19:02:23.336Z,10.79
2023-01-29T19:03:44.701Z,10.33
2023-01-29T19:05:06.434Z,10.58
2023-01-29T19:06:28.339Z,11.29
2023-01-29T19:07:49.823Z,10.74
2023-01-29T19:09:10.914Z,10.82
2023-01-29T19:10:32.498Z,11.80
2023-01-29T19:11:53.918Z,11.78
2023-01-29T19:13:14.963Z,10.53
2023-01-29T19:14:38.475Z,10.63
2023-01-29T19:15:59.721Z,10.38
2023-01-29T19:17:21.030Z,10.63
2023-01-29T19:18:42.393Z,10.04
2023-01-29T19:20:04.064Z,9.78
2023-01-29T19:21:25.376Z,10.09
2023-01-29T19:22:46.826Z,10.08
2023-01-29T19:24:08.505Z,10.27
2023-01-29T19:25:30.065Z,10.17
2023-01-29T19:26:51.787Z,8.77
2023-01-29T19:28:13.592Z,7.56
2023-01-29T19:29:35.040Z,7.45
2023-01-29T19:30:57.416Z,7.01
2023-01-29T19:32:19.637Z,6.76
2023-01-29T19:33:40.967Z,6.40
2023-01-29T19:35:02.232Z,6.54
2023-01-29T19:36:24.604Z,7.02
2023-01-29T19:37:45.962Z,7.04
2023-01-29T19:39:07.675Z,7.46
2023-01-29T19:40:29.224Z,7.34
2023-01-29T19:41:50.585Z,7.62
2023-01-29T19:43:11.927Z,8.27
2023-01-29T19:44:33.468Z,7.78
2023-01-29T19:45:57.062Z,8.68
2023-01-29T19:47:18.867Z,7.39
2023-01-29T19:48:40.476Z,7.36
2023-01-29T19:50:02.040Z,8.16
2023-01-29T19:51:23.549Z,8.30
2023-01-29T19:52:52.140Z,7.08
2023-01-29T19:54:08.423Z,6.82
2023-01-29T19:55:30.919Z,7.79
2023-01-29T19:56:53.649Z,6.93
2023-01-29T19:58:14.874Z,7.02
2023-01-29T19:59:36.199Z,6.74
2023-01-29T20:00:59.316Z,7.52
2023-01-29T20:02:20.762Z,6.94
2023-01-29T20:03:42.026Z,7.92
2023-01-29T20:05:04.897Z,8.27
2023-01-29T20:06:27.291Z,8.45
2023-01-29T20:07:48.680Z,8.71
2023-01-29T20:09:10.251Z,8.78
2023-01-29T20:10:31.897Z,9.33
2023-01-29T20:11:53.306Z,8.88
2023-01-29T20:13:14.878Z,8.63
2023-01-29T20:14:36.242Z,7.31
2023-01-29T20:15:57.900Z,6.93
2023-01-29T20:17:19.168Z,6.39
2023-01-29T20:18:40.647Z,6.95
2023-01-29T20:20:03.153Z,10.14
2023-01-29T20:21:24.167Z,6.55
2023-01-29T20:22:45.831Z,6.87
2023-01-29T20:24:10.825Z,6.06
2023-01-29T20:25:32.158Z,6.29
2023-01-29T20:26:53.884Z,5.88
2023-01-29T20:28:15.408Z,6.01
2023-01-29T20:29:39.422Z,7.06
2023-01-29T20:31:01.299Z,7.55
2023-01-29T20:32:22.625Z,7.73
2023-01-29T20:33:44.094Z,7.02